createdAt,value
2023-01-11T00:01:22.821Z,61135.19
2023-01-11T00:03:51.374Z,61132.34
2023-01-11T00:06:19.710Z,61130.63
2023-01-11T00:08:48.120Z,61123.66
2023-01-11T00:11:17.731Z,61123.25
2023-01-11T00:13:46.703Z,61129.97
2023-01-11T00:16:16.524Z,61139.06
2023-01-11T00:18:45.058Z,61137.56
2023-01-11T00:21:13.558Z,61128.59
2023-01-11T00:23:42.153Z,61136.41
2023-01-11T00:26:13.870Z,61133.28
2023-01-11T00:28:42.251Z,61134.91
2023-01-11T00:31:10.942Z,61132.47
2023-01-11T00:33:40.932Z,61136.50
2023-01-11T00:36:10.417Z,61126.88
2023-01-11T00:38:46.537Z,61127.53
2023-01-11T00:41:34.554Z,61134.38
2023-01-11T00:44:21.023Z,61134.38
2023-01-11T00:47:07.082Z,61146.97
2023-01-11T00:49:37.269Z,61141.72
2023-01-11T00:52:09.103Z,61137.56
2023-01-11T00:54:38.082Z,61138.66
2023-01-11T00:57:07.571Z,61140.66
2023-01-11T00:59:36.046Z,61141.84
2023-01-11T01:02:04.849Z,61147.63
2023-01-11T01:04:33.441Z,61137.06
2023-01-11T01:07:03.198Z,61147.22
2023-01-11T01:09:32.305Z,61155.13
2023-01-11T01:12:02.683Z,61144.66
2023-01-11T01:14:30.895Z,61150.28
2023-01-11T01:17:01.650Z,61150.81
2023-01-11T01:19:30.874Z,61160.47
2023-01-11T01:22:02.275Z,61153.22
2023-01-11T01:24:32.577Z,61148.81
2023-01-11T01:27:01.259Z,61157.34
2023-01-11T01:29:29.619Z,61143.59
2023-01-11T01:31:58.051Z,61153.50
2023-01-11T01:34:26.520Z,61144.41
2023-01-11T01:36:54.872Z,61148.16
2023-01-11T01:39:24.693Z,61149.47
2023-01-11T01:41:53.216Z,61157.25
2023-01-11T01:45:07.870Z,61150.00
2023-01-11T01:47:45.486Z,61154.69
2023-01-11T01:50:19.503Z,61148.91
2023-01-11T01:52:51.957Z,61134.63
2023-01-11T01:55:28.303Z,61139.72
2023-01-11T01:57:59.180Z,61135.84
2023-01-11T02:00:27.683Z,61141.72
2023-01-11T02:02:58.855Z,61148.69
2023-01-11T02:05:28.269Z,61144.66
2023-01-11T02:07:59.154Z,61145.72
2023-01-11T02:10:29.205Z,61139.41
2023-01-11T02:13:02.062Z,61147.63
2023-01-11T02:15:31.127Z,61150.00
2023-01-11T02:17:59.599Z,61158.31
2023-01-11T02:20:46.324Z,61154.47
2023-01-11T02:23:50.710Z,61151.59
2023-01-11T02:27:16.722Z,61141.84
2023-01-11T02:30:00.749Z,61135.28
2023-01-11T02:32:39.272Z,61143.59
2023-01-11T02:35:19.008Z,61154.69
2023-01-11T02:38:01.722Z,61150.81
2023-01-11T02:40:43.182Z,61158.72
2023-01-11T02:43:36.060Z,61155.34
2023-01-11T02:46:13.185Z,61163.69
2023-01-11T02:48:49.782Z,61159.63
2023-01-11T02:51:23.681Z,61162.19
2023-01-11T02:53:57.150Z,61163.25
2023-01-11T02:56:29.423Z,61153.22
2023-01-11T02:59:01.084Z,61145.72
2023-01-11T03:01:30.996Z,61153.63
2023-01-11T03:03:59.409Z,61160.47
2023-01-11T03:06:32.663Z,61156.19
2023-01-11T03:09:16.679Z,61156.81
2023-01-11T03:12:19.792Z,61148.91
2023-01-11T03:15:04.713Z,61152.56
2023-01-11T03:17:47.844Z,61155.13
2023-01-11T03:20:23.379Z,61152.56
2023-01-11T03:23:06.098Z,61153.75
2023-01-11T03:25:45.633Z,61157.91
2023-01-11T03:28:23.586Z,61161.53
2023-01-11T03:31:03.425Z,61158.31
2023-01-11T03:33:38.851Z,61169.03
2023-01-11T03:36:15.696Z,61165.41
2023-01-11T03:38:51.655Z,61164.84
2023-01-11T03:41:25.675Z,61158.97
2023-01-11T03:43:56.842Z,61164.97
2023-01-11T03:46:30.636Z,61168.06
2023-01-11T03:49:05.191Z,61169.03
2023-01-11T03:51:42.412Z,61176.22
2023-01-11T03:54:15.335Z,61181.88
2023-01-11T03:56:52.366Z,61172.47
2023-01-11T03:59:21.280Z,61174.59
2023-01-11T04:01:49.688Z,61186.13
2023-01-11T04:04:19.512Z,61188.94
2023-01-11T04:06:48.000Z,61187.22
2023-01-11T04:09:16.424Z,61194.69
2023-01-11T04:11:44.819Z,61189.47
2023-01-11T04:14:13.206Z,61194.69
2023-01-11T04:16:41.716Z,61190.69
2023-01-11T04:19:10.152Z,61199.00
2023-01-11T04:21:39.953Z,61194.28
2023-01-11T04:24:09.027Z,61199.22
2023-01-11T04:26:37.381Z,61200.19
2023-01-11T04:29:05.864Z,61203.28
2023-01-11T04:31:34.759Z,61210.91
2023-01-11T04:34:03.264Z,61210.34
2023-01-11T04:36:31.662Z,61208.22
2023-01-11T04:39:01.615Z,61204.56
2023-01-11T04:41:47.424Z,61210.78
2023-01-11T04:44:16.092Z,61204.56
2023-01-11T04:46:44.514Z,61212.38
2023-01-11T04:49:12.899Z,61202.44
2023-01-11T04:51:41.295Z,61202.22
2023-01-11T04:54:11.157Z,61209.69
2023-01-11T04:56:39.524Z,61215.06
2023-01-11T04:59:07.889Z,61214.63
2023-01-11T05:01:36.334Z,61223.63
2023-01-11T05:04:04.915Z,61223.63
2023-01-11T05:06:33.434Z,61226.81
2023-01-11T05:09:01.883Z,61230.03
2023-01-11T05:11:33.536Z,61221.72
2023-01-11T05:14:01.978Z,61233.25
2023-01-11T05:16:30.441Z,61232.72
2023-01-11T05:19:02.334Z,61226.28
2023-01-11T05:21:32.374Z,61231.34
2023-01-11T05:24:02.378Z,61234.56
2023-01-11T05:26:34.940Z,61236.59
2023-01-11T05:29:06.100Z,61236.16
2023-01-11T05:31:36.344Z,61247.06
2023-01-11T05:34:06.922Z,61238.97
2023-01-11T05:36:36.760Z,61249.31
2023-01-11T05:39:07.228Z,61249.97
2023-01-11T05:41:37.532Z,61243.56
2023-01-11T05:44:24.217Z,61244.22
2023-01-11T05:46:52.643Z,61246.34
2023-01-11T05:49:21.108Z,61248.91
2023-01-11T05:51:49.494Z,61246.13
2023-01-11T05:54:17.963Z,61245.16
2023-01-11T05:56:47.716Z,61253.06
2023-01-11T05:59:16.132Z,61251.69
2023-01-11T06:01:44.635Z,61252.53
2023-01-11T06:04:13.122Z,61257.91
2023-01-11T06:06:41.816Z,61250.63
2023-01-11T06:09:10.396Z,61259.06
2023-01-11T06:11:38.870Z,61263.22
2023-01-11T06:14:08.696Z,61262.16
2023-01-11T06:16:37.109Z,61266.44
2023-01-11T06:19:05.525Z,61267.00
2023-01-11T06:21:34.194Z,61262.41
2023-01-11T06:24:02.610Z,61263.47
2023-01-11T06:26:30.973Z,61262.81
2023-01-11T06:28:59.568Z,61257.06
2023-01-11T06:31:29.371Z,61263.22
2023-01-11T06:33:57.806Z,61259.19
2023-01-11T06:36:28.275Z,61257.47
2023-01-11T06:38:57.936Z,61266.44
2023-01-11T06:41:26.294Z,61263.78
2023-01-11T06:43:54.735Z,61261.31
2023-01-11T06:46:23.526Z,61262.81
2023-01-11T06:48:53.431Z,61261.88
2023-01-11T06:51:21.818Z,61269.25
2023-01-11T06:53:50.176Z,61268.19
2023-01-11T06:56:19.949Z,61269.78
2023-01-11T06:58:48.749Z,61270.34
2023-01-11T07:01:18.023Z,61271.41
2023-01-11T07:03:46.556Z,61275.13
2023-01-11T07:06:16.652Z,61273.53
2023-01-11T07:08:45.171Z,61271.81
2023-01-11T07:11:13.876Z,61275.00
2023-01-11T07:13:42.307Z,61279.97
2023-01-11T07:16:10.763Z,61275.13
2023-01-11T07:18:39.158Z,61277.41
2023-01-11T07:21:07.946Z,61281.56
2023-01-11T07:23:37.724Z,61291.34
2023-01-11T07:26:06.553Z,61303.94
2023-01-11T07:28:35.095Z,61299.91
2023-01-11T07:31:03.612Z,61302.47
2023-01-11T07:33:32.100Z,61306.78
2023-01-11T07:36:00.846Z,61309.44
2023-01-11T07:38:29.728Z,61315.75
2023-01-11T07:40:59.624Z,61316.06
2023-01-11T07:43:27.016Z,61313.19
2023-01-11T07:45:55.486Z,61319.09
2023-01-11T07:48:26.903Z,61313.84
2023-01-11T07:50:56.229Z,61325.41
2023-01-11T07:53:26.576Z,61317.47
2023-01-11T07:55:58.325Z,61325.28
2023-01-11T07:58:26.763Z,61322.19
2023-01-11T08:00:55.413Z,61317.38
2023-01-11T08:03:24.225Z,61315.34
2023-01-11T08:05:54.278Z,61308.50
2023-01-11T08:08:24.644Z,61325.00
2023-01-11T08:11:13.436Z,61322.31
2023-01-11T08:14:00.860Z,61325.00
2023-01-11T08:16:29.527Z,61326.06
2023-01-11T08:18:57.961Z,61330.75
2023-01-11T08:21:26.536Z,61333.56
2023-01-11T08:23:55.452Z,61330.34
2023-01-11T08:26:25.008Z,61338.03
2023-01-11T08:28:56.183Z,61332.78
2023-01-11T08:31:25.961Z,61321.38
2023-01-11T08:33:54.431Z,61331.28
2023-01-11T08:36:24.490Z,61330.75
2023-01-11T08:38:56.257Z,61328.63
2023-01-11T08:41:25.198Z,61325.84
2023-01-11T08:43:55.572Z,61317.06
2023-01-11T08:46:24.131Z,61316.41
2023-01-11T08:48:53.598Z,61318.56
2023-01-11T08:51:22.261Z,61321.38
2023-01-11T08:53:52.872Z,61323.28
2023-01-11T08:56:21.179Z,61325.00
2023-01-11T08:58:49.563Z,61323.28
2023-01-11T09:01:19.322Z,61317.47
2023-01-11T09:03:47.704Z,61318.16
2023-01-11T09:06:16.127Z,61325.41
2023-01-11T09:08:44.513Z,61327.03
2023-01-11T09:11:26.707Z,61325.94
2023-01-11T09:13:55.138Z,61324.47
2023-01-11T09:16:25.019Z,61333.44
2023-01-11T09:18:53.443Z,61326.50
2023-01-11T09:21:21.896Z,61329.25
2023-01-11T09:23:50.378Z,61324.56
2023-01-11T09:26:18.813Z,61325.63
2023-01-11T09:28:47.204Z,61332.38
2023-01-11T09:31:15.609Z,61338.28
2023-01-11T09:33:45.405Z,61332.50
2023-01-11T09:36:14.919Z,61335.16
2023-01-11T09:38:44.058Z,61331.41
2023-01-11T09:41:29.818Z,61344.69
2023-01-11T09:44:06.435Z,61344.06
2023-01-11T09:46:36.975Z,61335.72
2023-01-11T09:49:07.759Z,61344.16
2023-01-11T09:51:39.620Z,61341.50
2023-01-11T09:54:10.778Z,61346.41
2023-01-11T09:56:49.867Z,61349.50
2023-01-11T09:59:29.812Z,61353.81
2023-01-11T10:02:08.044Z,61355.41
2023-01-11T10:05:10.845Z,61357.03
2023-01-11T10:18:20.770Z,61356.63
2023-01-11T10:18:29.801Z,61365.06
2023-01-11T10:20:01.355Z,61356.75
2023-01-11T10:22:36.879Z,61359.19
2023-01-11T10:25:16.897Z,61362.94
2023-01-11T10:27:56.885Z,61375.13
2023-01-11T10:30:55.707Z,61365.72
2023-01-11T10:33:46.369Z,61372.56
2023-01-11T10:36:34.865Z,61364.66
2023-01-11T10:39:32.003Z,61372.56
2023-01-11T10:42:10.416Z,61370.00
2023-01-11T10:44:49.503Z,61365.19
2023-01-11T10:47:27.847Z,61366.91
2023-01-11T10:50:04.188Z,61364.22
2023-01-11T10:52:41.884Z,61376.31
2023-01-11T10:55:14.794Z,61365.06
2023-01-11T10:58:01.378Z,61368.94
2023-01-11T11:00:41.288Z,61375.38
2023-01-11T11:03:43.349Z,61381.16
2023-01-11T11:06:21.648Z,61390.16
2023-01-11T11:08:58.231Z,61389.19
2023-01-11T11:11:34.523Z,61388.66
2023-01-11T11:14:10.782Z,61390.91
2023-01-11T11:16:56.127Z,61394.69
2023-01-11T11:19:31.665Z,61397.25
2023-01-11T11:22:00.713Z,61400.47
2023-01-11T11:24:37.673Z,61403.25
2023-01-11T11:27:21.989Z,61408.63
2023-01-11T11:29:55.818Z,61413.44
2023-01-11T11:32:31.907Z,61415.03
2023-01-11T11:35:00.675Z,61422.16
2023-01-11T11:37:34.190Z,61437.34
2023-01-11T11:40:05.766Z,61440.16
2023-01-11T11:42:34.168Z,61445.81
2023-01-11T11:45:19.278Z,61448.75
2023-01-11T11:48:04.034Z,61445.09
2023-01-11T11:50:48.608Z,61446.72
2023-01-11T11:53:42.970Z,61457.31
2023-01-11T11:56:25.551Z,61453.03
2023-01-11T11:58:55.382Z,61461.31
2023-01-11T12:01:29.788Z,61478.53
2023-01-11T12:04:02.340Z,61483.06
2023-01-11T12:06:31.828Z,61486.41
2023-01-11T12:09:03.819Z,61492.75
2023-01-11T12:11:36.793Z,61491.25
2023-01-11T12:14:18.262Z,61496.91
2023-01-11T12:16:47.812Z,61491.13
2023-01-11T12:19:35.784Z,61490.81
2023-01-11T12:22:18.901Z,61488.97
2023-01-11T12:24:48.983Z,61479.44
2023-01-11T12:27:32.561Z,61473.00
2023-01-11T12:30:20.036Z,61472.03
2023-01-11T12:33:13.155Z,61479.31
2023-01-11T12:35:52.937Z,61472.47
2023-01-11T12:38:40.136Z,61480.94
2023-01-11T12:41:47.774Z,61472.59
2023-01-11T12:44:38.229Z,61471.50
2023-01-11T12:47:42.494Z,61478.91
2023-01-11T12:50:19.234Z,61482.00
2023-01-11T12:53:15.056Z,61484.16
2023-01-11T12:56:25.399Z,61481.06
2023-01-11T12:58:59.900Z,61479.84
2023-01-11T13:01:39.158Z,61484.38
2023-01-11T13:04:52.669Z,61479.03
2023-01-11T13:07:36.992Z,61484.28
2023-01-11T13:10:22.571Z,61485.88
2023-01-11T13:12:57.706Z,61485.88
2023-01-11T13:15:42.176Z,61486.97
2023-01-11T13:18:27.837Z,61476.88
2023-01-11T13:21:03.229Z,61480.94
2023-01-11T13:23:40.273Z,61484.03
2023-01-11T13:26:20.409Z,61486.41
2023-01-11T13:28:54.166Z,61488.97
2023-01-11T13:31:24.026Z,61486.97
2023-01-11T13:33:59.932Z,61486.41
2023-01-11T13:36:38.159Z,61482.13
2023-01-11T13:39:14.890Z,61479.03
2023-01-11T13:41:48.133Z,61481.59
2023-01-11T13:44:22.298Z,61488.44
2023-01-11T13:47:03.683Z,61484.38
2023-01-11T13:50:02.496Z,61484.28
2023-01-11T13:52:49.807Z,61483.72
2023-01-11T13:55:26.589Z,61487.50
2023-01-11T13:58:01.454Z,61489.22
2023-01-11T14:00:38.921Z,61492.97
2023-01-11T14:03:24.149Z,61488.97
2023-01-11T14:06:13.729Z,61487.91
2023-01-11T14:09:22.657Z,61489.09
2023-01-11T14:12:02.209Z,61486.53
2023-01-11T14:14:59.027Z,61484.81
2023-01-11T14:17:58.328Z,61489.53
2023-01-11T14:20:36.515Z,61477.94
2023-01-11T14:23:13.172Z,61487.38
2023-01-11T14:26:03.793Z,61472.59
2023-01-11T14:28:52.618Z,61475.16
2023-01-11T14:31:45.321Z,61468.59
2023-01-11T14:35:00.967Z,61466.13
2023-01-11T14:38:17.750Z,61465.34
2023-01-11T14:41:23.945Z,61468.69
2023-01-11T14:44:44.632Z,61471.25
2023-01-11T14:47:44.252Z,61473.81
2023-01-11T14:50:22.322Z,61461.31
2023-01-11T14:52:54.134Z,61465.91
2023-01-11T14:55:29.117Z,61458.63
2023-01-11T14:58:07.127Z,61454.75
2023-01-11T15:01:08.624Z,61463.09
2023-01-11T15:03:50.832Z,61456.88
2023-01-11T15:06:22.836Z,61451.00
2023-01-11T15:08:55.236Z,61448.31
2023-01-11T15:11:40.826Z,61461.19
2023-01-11T15:14:30.614Z,61473.41
2023-01-11T15:17:20.749Z,61463.22
2023-01-11T15:19:51.566Z,61449.50
2023-01-11T15:22:30.924Z,61451.66
2023-01-11T15:25:02.850Z,61453.03
2023-01-11T15:27:36.956Z,61442.53
2023-01-11T15:30:09.337Z,61446.16
2023-01-11T15:32:38.076Z,61438.66
2023-01-11T15:35:34.555Z,61441.44
2023-01-11T15:38:12.075Z,61444.13
2023-01-11T15:40:43.414Z,61444.03
2023-01-11T15:43:50.826Z,61442.41
2023-01-11T15:47:02.417Z,61445.53
2023-01-11T15:50:16.674Z,61448.75
2023-01-11T15:53:34.607Z,61431.81
2023-01-11T15:56:48.218Z,61450.03
2023-01-11T15:59:59.496Z,61444.03
2023-01-11T16:03:16.083Z,61442.06
2023-01-11T16:06:06.394Z,61436.94
2023-01-11T16:08:43.121Z,61423.22
2023-01-11T16:11:23.206Z,61418.69
2023-01-11T16:14:28.949Z,61426.84
2023-01-11T16:16:59.749Z,61421.50
2023-01-11T16:19:33.566Z,61421.50
2023-01-11T16:22:05.717Z,61411.84
2023-01-11T16:24:44.884Z,61412.69
2023-01-11T16:27:23.656Z,61408.50
2023-01-11T16:29:53.188Z,61400.47
2023-01-11T16:32:29.639Z,61392.66
2023-01-11T16:34:58.143Z,61395.75
2023-01-11T16:37:32.898Z,61395.50
2023-01-11T16:40:07.551Z,61386.53
2023-01-11T16:42:45.304Z,61384.38
2023-01-11T16:45:20.711Z,61383.97
2023-01-11T16:48:06.360Z,61379.13
2023-01-11T16:50:35.853Z,61371.75
2023-01-11T16:53:05.647Z,61370.53
2023-01-11T16:55:37.848Z,61385.66
2023-01-11T16:58:17.377Z,61373.22
2023-01-11T17:00:59.841Z,61371.75
2023-01-11T17:03:32.876Z,61367.31
2023-01-11T17:06:20.260Z,61363.59
2023-01-11T17:08:52.360Z,61363.59
2023-01-11T17:11:33.603Z,61361.75
2023-01-11T17:14:46.051Z,61358.22
2023-01-11T17:17:15.157Z,61355.41
2023-01-11T17:19:48.641Z,61357.56
2023-01-11T17:22:24.789Z,61343.56
2023-01-11T17:24:56.631Z,61348.56
2023-01-11T17:27:30.117Z,61350.06
2023-01-11T17:29:59.786Z,61349.22
2023-01-11T17:32:37.012Z,61348.16
2023-01-11T17:35:16.906Z,61341.59
2023-01-11T17:37:46.882Z,61336.38
2023-01-11T17:40:24.635Z,61338.94
2023-01-11T17:43:20.601Z,61350.47
2023-01-11T17:45:52.408Z,61330.47
2023-01-11T17:48:21.558Z,61337.31
2023-01-11T17:50:54.674Z,61325.63
2023-01-11T17:53:26.908Z,61321.25
2023-01-11T17:55:57.742Z,61325.00
2023-01-11T17:58:28.358Z,61321.38
2023-01-11T18:01:27.233Z,61323.50
2023-01-11T18:03:58.060Z,61325.00
2023-01-11T18:06:35.725Z,61330.75
2023-01-11T18:09:07.003Z,61322.44
2023-01-11T18:11:38.647Z,61323.94
2023-01-11T18:14:19.047Z,61304.75
2023-01-11T18:17:02.948Z,61310.63
2023-01-11T18:19:39.618Z,61308.28
2023-01-11T18:22:30.438Z,61297.13
2023-01-11T18:25:04.284Z,61294.97
2023-01-11T18:27:35.342Z,61295.91
2023-01-11T18:30:06.602Z,61295.91
2023-01-11T18:32:39.029Z,61299.56
2023-01-11T18:35:18.822Z,61292.94
2023-01-11T18:37:49.478Z,61301.28
2023-01-11T18:40:20.052Z,61293.91
2023-01-11T18:42:51.867Z,61292.81
2023-01-11T18:45:21.933Z,61288.53
2023-01-11T18:47:50.455Z,61280.75
2023-01-11T18:50:19.820Z,61288.41
2023-01-11T18:52:49.692Z,61285.88
2023-01-11T18:55:18.797Z,61283.84
2023-01-11T18:57:48.387Z,61280.78
2023-01-11T19:00:18.796Z,61284.00
2023-01-11T19:02:47.421Z,61283.19
2023-01-11T19:05:19.089Z,61273.31
2023-01-11T19:07:49.273Z,61282.53
2023-01-11T19:10:19.770Z,61278.88
2023-01-11T19:12:48.827Z,61271.50
2023-01-11T19:15:18.240Z,61269.25
2023-01-11T19:17:46.739Z,61270.88
2023-01-11T19:20:19.535Z,61264.56
2023-01-11T19:22:49.465Z,61254.25
2023-01-11T19:25:24.313Z,61258.84
2023-01-11T19:27:54.961Z,61242.47
2023-01-11T19:30:23.525Z,61247.81
2023-01-11T19:32:53.270Z,61247.81
2023-01-11T19:35:23.649Z,61248.47
2023-01-11T19:37:53.759Z,61253.19
2023-01-11T19:40:22.578Z,61256.28
2023-01-11T19:42:52.440Z,61251.03
2023-01-11T19:45:20.930Z,61250.38
2023-01-11T19:47:49.245Z,61253.06
2023-01-11T19:50:18.274Z,61255.75
2023-01-11T19:52:47.025Z,61253.19
2023-01-11T19:55:17.027Z,61252.09
2023-01-11T19:57:45.468Z,61250.38
2023-01-11T20:00:15.145Z,61248.25
2023-01-11T20:02:43.626Z,61248.25
2023-01-11T20:05:13.545Z,61237.66
2023-01-11T20:07:41.921Z,61241.81
2023-01-11T20:10:11.778Z,61234.34
2023-01-11T20:12:41.602Z,61230.69
2023-01-11T20:15:11.625Z,61234.97
2023-01-11T20:17:40.068Z,61225.88
2023-01-11T20:20:10.049Z,61219.69
2023-01-11T20:22:38.604Z,61224.81
2023-01-11T20:25:08.309Z,61225.88
2023-01-11T20:27:36.843Z,61217.44
2023-01-11T20:30:08.403Z,61218.38
2023-01-11T20:32:41.867Z,61218.25
2023-01-11T20:35:11.685Z,61217.19
2023-01-11T20:37:40.159Z,61225.09
2023-01-11T20:40:11.841Z,61216.34
2023-01-11T20:42:41.614Z,61213.56
2023-01-11T20:45:12.696Z,61209.28
2023-01-11T20:47:41.142Z,61205.41
2023-01-11T20:50:11.133Z,61196.56
2023-01-11T20:52:39.564Z,61198.81
2023-01-11T20:55:09.294Z,61205.53
2023-01-11T20:57:37.735Z,61213.75
2023-01-11T21:02:39.729Z,61203.94
2023-01-11T21:05:09.310Z,61208.75
2023-01-11T21:07:38.089Z,61212.63
2023-01-11T21:10:09.068Z,61213.69
2023-01-11T21:15:08.651Z,61213.03
2023-01-11T21:17:38.606Z,61207.25
2023-01-11T21:20:08.676Z,61213.56
2023-01-11T21:22:37.129Z,61207.56
2023-01-11T21:25:06.455Z,61203.94
2023-01-11T21:27:35.041Z,61186.25
2023-01-11T21:30:03.938Z,61189.34
2023-01-11T21:32:32.273Z,61197.91
2023-01-11T21:35:02.061Z,61182.13
2023-01-11T21:37:30.786Z,61188.28
2023-01-11T21:39:59.125Z,61186.69
2023-01-11T21:42:27.517Z,61179.97
2023-01-11T21:44:55.898Z,61195.78
2023-01-11T21:47:24.339Z,61199.22
2023-01-11T21:49:52.712Z,61199.00
2023-01-11T21:52:22.484Z,61201.13
2023-01-11T21:54:53.859Z,61197.38
2023-01-11T21:57:22.477Z,61189.59
2023-01-11T21:59:50.850Z,61184.00
2023-01-11T22:02:19.241Z,61181.88
2023-01-11T22:04:47.722Z,61187.88
2023-01-11T22:07:16.157Z,61177.16
2023-01-11T22:10:03.421Z,61164.97
2023-01-11T22:12:32.383Z,61181.59
2023-01-11T22:15:00.857Z,61189.34
2023-01-11T22:17:29.239Z,61181.47
2023-01-11T22:19:58.808Z,61172.25
2023-01-11T22:22:28.339Z,61179.72
2023-01-11T22:24:58.200Z,61178.91
2023-01-11T22:27:26.636Z,61181.47
2023-01-11T22:29:55.051Z,61189.47
2023-01-11T22:32:23.750Z,61185.19
2023-01-11T22:34:52.178Z,61182.41
2023-01-11T22:37:20.733Z,61161.78
2023-01-11T22:39:52.981Z,61171.81
2023-01-11T22:42:22.746Z,61165.81
2023-01-11T22:44:53.407Z,61165.81
2023-01-11T22:47:30.570Z,61170.75
2023-01-11T22:49:59.138Z,61182.94
2023-01-11T22:52:27.579Z,61175.69
2023-01-11T22:54:56.095Z,61185.06
2023-01-11T22:57:25.832Z,61173.19
2023-01-11T22:59:54.279Z,61177.16
2023-01-11T23:02:22.667Z,61182.41
2023-01-11T23:04:51.094Z,61181.88
2023-01-11T23:07:19.591Z,61179.84
2023-01-11T23:09:48.024Z,61185.06
2023-01-11T23:12:34.109Z,61189.78
2023-01-11T23:15:04.590Z,61178.59
2023-01-11T23:17:32.927Z,61204.34
2023-01-11T23:20:01.302Z,61214.50
2023-01-11T23:22:29.671Z,61210.34
2023-01-11T23:24:58.031Z,61214.63
2023-01-11T23:27:26.391Z,61218.50
2023-01-11T23:29:54.734Z,61229.09
2023-01-11T23:32:24.502Z,61227.06
2023-01-11T23:34:52.968Z,61238.19
2023-01-11T23:37:21.413Z,61238.59
2023-01-11T23:39:49.791Z,61241.28
2023-01-11T23:42:26.712Z,61233.91
2023-01-11T23:44:55.831Z,61231.78
2023-01-11T23:47:29.456Z,61244.63
2023-01-11T23:50:00.400Z,61245.69
2023-01-11T23:52:31.295Z,61248.34
2023-01-11T23:55:00.701Z,61245.28
2023-01-11T23:57:29.277Z,61245.69
2023-01-11T23:59:57.720Z,61384.91
